Time;durP1;ratioP1;P1;durP2;ratioP2;P2;SDS_P1;SDS_P2;PMS_P1;PMS_P2;Temp;Humidity;BMP_temperature;BMP_pressure;BME280_temperature;BME280_humidity;BME280_pressure;Samples;Min_cycle;Max_cycle;Signal;HPM_P1;HPM_P2
2023/10/07 00:02:16;;;;;;;4.93;3.50;;;9.30;1.00;;;;;;5018748;28;20416;-84
2023/10/07 00:04:44;;;;;;;4.82;3.70;;;9.30;1.00;;;;;;5038312;28;20721;-84
2023/10/07 00:07:10;;;;;;;6.22;4.00;;;9.30;1.00;;;;;;5039908;28;20998;-84
2023/10/07 00:09:43;;;;;;;5.97;3.57;;;8.80;1.00;;;;;;5024313;28;20900;-84
2023/10/07 00:12:16;;;;;;;4.85;3.80;;;9.20;1.00;;;;;;5018465;28;20397;-85
2023/10/07 00:14:43;;;;;;;5.47;3.70;;;9.30;1.00;;;;;;5020437;28;20912;-84
2023/10/07 00:17:16;;;;;;;4.00;3.40;;;9.40;1.00;;;;;;5020314;28;20408;-84
2023/10/07 00:19:43;;;;;;;7.03;4.07;;;9.30;1.00;;;;;;5038075;28;20410;-85
2023/10/07 00:22:13;;;;;;;5.60;3.58;;;9.20;1.00;;;;;;5026172;28;20404;-84
2023/10/07 00:24:43;;;;;;;5.27;3.80;;;9.80;1.00;;;;;;5021127;28;20467;-84
2023/10/07 00:30:16;;;;;;;5.80;4.10;;;9.30;1.00;;;;;;5006393;28;21108;-85
2023/10/07 00:32:45;;;;;;;4.70;3.70;;;9.30;1.00;;;;;;5035447;28;20498;-84
2023/10/07 00:35:11;;;;;;;4.47;3.60;;;9.30;1.00;;;;;;5022457;28;20398;-85
2023/10/07 00:37:42;;;;;;;5.28;4.07;;;9.50;1.00;;;;;;5021250;28;20396;-84
2023/10/07 00:40:14;;;;;;;4.70;3.30;;;9.30;1.00;;;;;;5032264;28;20405;-83
2023/10/07 00:42:47;;;;;;;5.47;3.80;;;9.90;1.00;;;;;;5025163;28;20447;-86
2023/10/07 00:45:16;;;;;;;6.70;3.80;;;9.60;1.00;;;;;;5023902;28;20472;-84
2023/10/07 00:47:42;;;;;;;5.93;3.70;;;10.10;1.00;;;;;;5041264;28;20398;-84
2023/10/07 00:50:11;;;;;;;5.05;3.70;;;9.40;1.00;;;;;;5040461;28;20430;-85
2023/10/07 00:52:48;;;;;;;5.50;3.90;;;9.60;1.00;;;;;;5041381;28;20395;-84
2023/10/07 00:55:21;;;;;;;4.30;3.58;;;9.10;1.00;;;;;;5039919;28;20950;-85
2023/10/07 00:57:50;;;;;;;6.43;3.80;;;9.30;1.00;;;;;;5028603;28;20410;-85
2023/10/07 01:00:40;;;;;;;5.13;3.65;;;9.20;1.00;;;;;;5036524;28;20488;-84
2023/10/07 01:03:17;;;;;;;5.38;3.85;;;9.60;1.00;;;;;;5030792;28;20447;-84
2023/10/07 01:06:07;;;;;;;6.30;3.95;;;8.90;1.00;;;;;;5027730;28;20411;-85
2023/10/07 01:08:38;;;;;;;5.30;4.00;;;9.00;1.00;;;;;;5034647;28;20404;-84
2023/10/07 01:11:08;;;;;;;4.53;3.17;;;9.10;1.00;;;;;;5026310;28;20471;-84
2023/10/07 01:13:44;;;;;;;6.22;3.60;;;9.30;1.00;;;;;;5024512;28;20389;-84
2023/10/07 01:16:13;;;;;;;6.10;3.80;;;8.90;1.00;;;;;;5039255;28;20395;-85
2023/10/07 01:18:39;;;;;;;5.57;3.65;;;8.60;1.00;;;;;;5043605;28;20478;-84
2023/10/07 01:21:11;;;;;;;7.82;3.67;;;8.80;1.00;;;;;;5032620;28;20396;-84
2023/10/07 01:23:36;;;;;;;5.82;3.78;;;8.80;1.00;;;;;;5038099;28;20459;-84
2023/10/07 01:26:14;;;;;;;4.27;3.57;;;9.00;1.00;;;;;;5028883;28;20408;-84
2023/10/07 01:28:40;;;;;;;4.53;3.40;;;9.00;1.00;;;;;;5022514;28;20479;-84
2023/10/07 01:31:11;;;;;;;4.40;3.20;;;9.10;1.00;;;;;;5022534;28;20385;-84
2023/10/07 01:33:47;;;;;;;5.18;3.42;;;9.90;1.00;;;;;;5039909;28;20394;-84
2023/10/07 01:38:52;;;;;;;4.28;3.58;;;10.90;1.00;;;;;;5040510;28;20425;-84
2023/10/07 01:41:27;;;;;;;4.18;3.65;;;8.80;1.00;;;;;;5042642;28;20423;-84
2023/10/07 01:43:59;;;;;;;7.05;3.90;;;9.30;1.00;;;;;;5050134;28;20395;-84
2023/10/07 01:46:28;;;;;;;5.97;4.45;;;8.70;1.00;;;;;;5032767;28;20445;-84
2023/10/07 01:49:01;;;;;;;4.90;3.90;;;8.70;1.00;;;;;;5055011;23;20533;-79
2023/10/07 01:51:28;;;;;;;5.53;3.90;;;8.80;1.00;;;;;;5038817;28;20394;-79
2023/10/07 01:53:56;;;;;;;6.35;3.90;;;8.70;1.00;;;;;;5040189;28;20375;-79
2023/10/07 01:56:26;;;;;;;6.28;3.92;;;8.80;1.00;;;;;;5036649;28;20390;-79
2023/10/07 01:58:54;;;;;;;4.45;3.58;;;8.70;1.00;;;;;;5032818;28;20398;-79
2023/10/07 02:01:21;;;;;;;6.30;3.55;;;8.80;1.00;;;;;;5033156;28;20429;-79
2023/10/07 02:03:47;;;;;;;5.30;3.50;;;8.70;1.00;;;;;;5032254;28;20906;-79
2023/10/07 02:06:18;;;;;;;9.25;4.13;;;8.70;1.00;;;;;;5031280;28;20815;-79
2023/10/07 02:08:45;;;;;;;6.95;3.80;;;8.70;1.00;;;;;;5035707;28;20911;-79
2023/10/07 02:11:10;;;;;;;6.25;3.80;;;8.70;1.00;;;;;;5036349;28;20383;-79
2023/10/07 02:13:36;;;;;;;5.30;3.20;;;8.60;1.00;;;;;;5032564;28;20413;-79
2023/10/07 02:16:05;;;;;;;6.97;4.10;;;8.80;1.00;;;;;;5032885;28;20393;-78
2023/10/07 02:18:35;;;;;;;8.20;3.80;;;9.10;1.00;;;;;;5032404;28;20426;-79
2023/10/07 02:21:07;;;;;;;4.47;3.10;;;8.90;1.00;;;;;;5031611;28;20399;-77
2023/10/07 02:23:43;;;;;;;5.30;3.37;;;8.30;1.00;;;;;;5030574;28;20806;-77
2023/10/07 02:26:21;;;;;;;8.35;3.97;;;8.70;1.00;;;;;;5030278;28;20502;-77
2023/10/07 02:28:52;;;;;;;4.55;3.72;;;8.70;1.00;;;;;;5029813;28;20442;-77
2023/10/07 02:31:19;;;;;;;4.65;3.53;;;8.80;1.00;;;;;;5028486;28;20395;-77
2023/10/07 02:33:51;;;;;;;5.93;3.70;;;8.80;1.00;;;;;;5029651;28;20740;-77
2023/10/07 02:36:38;;;;;;;5.22;3.80;;;8.80;1.00;;;;;;5028720;28;20395;-77
2023/10/07 02:39:31;;;;;;;4.72;3.10;;;8.60;1.00;;;;;;5029720;28;20453;-77
2023/10/07 02:41:51;;;;;;;4.88;3.63;;;8.60;1.00;;;;;;5028952;28;20403;-77
2023/10/07 02:44:27;;;;;;;4.43;3.30;;;8.50;1.00;;;;;;5028303;28;20747;-77
2023/10/07 02:46:56;;;;;;;4.68;3.28;;;8.20;1.00;;;;;;5009487;28;20431;-77
2023/10/07 02:49:22;;;;;;;5.70;3.60;;;8.40;1.00;;;;;;5024044;28;20395;-77
2023/10/07 02:52:00;;;;;;;6.28;4.30;;;8.50;1.00;;;;;;5033079;28;20405;-78
2023/10/07 02:54:33;;;;;;;4.60;3.70;;;8.20;1.00;;;;;;5023883;28;20890;-77
2023/10/07 02:57:11;;;;;;;3.65;3.05;;;8.80;1.00;;;;;;5033629;28;20379;-77
2023/10/07 02:59:50;;;;;;;5.38;3.70;;;8.40;1.00;;;;;;5033296;28;20395;-77
2023/10/07 03:04:43;;;;;;;5.68;3.65;;;8.60;1.00;;;;;;5033413;28;20946;-77
2023/10/07 03:07:16;;;;;;;5.82;3.60;;;8.30;1.00;;;;;;5033220;28;20395;-77
2023/10/07 03:09:43;;;;;;;5.30;4.00;;;8.40;1.00;;;;;;5032948;28;20398;-77
2023/10/07 03:12:13;;;;;;;4.07;3.17;;;8.60;1.00;;;;;;5033302;28;20441;-77
2023/10/07 03:14:39;;;;;;;6.57;3.88;;;8.60;1.00;;;;;;5020657;28;20443;-77
2023/10/07 03:17:16;;;;;;;6.40;3.42;;;8.70;1.00;;;;;;5019484;28;20470;-77
2023/10/07 03:19:53;;;;;;;4.15;3.20;;;8.80;1.00;;;;;;5032887;28;20399;-77
2023/10/07 03:22:26;;;;;;;6.53;3.50;;;8.80;1.00;;;;;;5031856;28;20887;-77
2023/10/07 03:24:59;;;;;;;3.75;3.10;;;8.80;1.00;;;;;;5013234;28;20421;-77
2023/10/07 03:27:26;;;;;;;5.53;4.00;;;8.70;1.00;;;;;;5020474;28;20418;-77
2023/10/07 03:30:12;;;;;;;5.63;3.53;;;8.50;1.00;;;;;;5032690;28;20477;-77
2023/10/07 03:32:54;;;;;;;6.03;3.60;;;8.90;1.00;;;;;;5032974;28;20766;-77
2023/10/07 03:35:35;;;;;;;5.35;3.60;;;8.50;1.00;;;;;;5033144;28;20474;-77
2023/10/07 03:38:04;;;;;;;5.28;3.17;;;8.60;1.00;;;;;;5032068;28;20465;-77
2023/10/07 03:40:36;;;;;;;4.43;3.28;;;8.50;1.00;;;;;;5034009;28;20453;-77
2023/10/07 03:43:01;;;;;;;5.20;3.90;;;8.20;1.00;;;;;;5035967;28;20403;-77
2023/10/07 03:45:30;;;;;;;5.77;3.47;;;8.30;1.00;;;;;;5023056;28;20440;-77
2023/10/07 03:47:57;;;;;;;5.72;3.38;;;8.30;1.00;;;;;;5015701;28;20397;-77
2023/10/07 03:50:34;;;;;;;3.53;3.00;;;8.00;1.00;;;;;;5031886;28;20399;-77
2023/10/07 03:53:03;;;;;;;4.72;3.42;;;8.00;1.00;;;;;;5033451;28;20386;-77
2023/10/07 03:55:31;;;;;;;4.85;3.30;;;8.30;1.00;;;;;;5031900;28;20395;-78
2023/10/07 03:57:56;;;;;;;4.70;2.97;;;8.90;1.00;;;;;;5031790;28;20389;-78
2023/10/07 04:00:28;;;;;;;4.50;3.38;;;8.10;1.00;;;;;;5031672;28;20403;-77
2023/10/07 04:02:54;;;;;;;5.07;3.40;;;7.90;1.00;;;;;;5032041;28;20383;-77
2023/10/07 04:05:31;;;;;;;5.68;3.40;;;8.00;1.00;;;;;;5031586;28;20403;-77
2023/10/07 04:07:57;;;;;;;4.45;3.33;;;8.00;1.00;;;;;;5034591;28;20390;-77
2023/10/07 04:10:30;;;;;;;6.07;4.13;;;7.80;1.00;;;;;;5034192;28;20402;-78
2023/10/07 04:12:56;;;;;;;4.40;3.20;;;7.90;1.00;;;;;;5033793;28;20387;-78
2023/10/07 04:15:28;;;;;;;5.80;3.80;;;7.80;1.00;;;;;;5033235;28;20394;-77
2023/10/07 04:17:53;;;;;;;6.63;3.60;;;7.80;1.00;;;;;;5034177;28;20387;-77
2023/10/07 04:20:21;;;;;;;5.10;3.33;;;7.70;1.00;;;;;;5033447;28;20744;-77
2023/10/07 04:23:02;;;;;;;4.25;3.15;;;7.90;1.00;;;;;;5032323;28;20406;-77
2023/10/07 04:25:29;;;;;;;5.18;3.97;;;7.90;1.00;;;;;;5033858;28;20399;-77
2023/10/07 04:27:55;;;;;;;4.15;3.30;;;7.70;1.00;;;;;;5033940;28;20393;-78
2023/10/07 04:30:38;;;;;;;3.60;3.10;;;8.00;1.00;;;;;;5032224;28;20766;-77
2023/10/07 04:33:08;;;;;;;5.05;3.60;;;7.80;1.00;;;;;;5034268;28;20380;-76
2023/10/07 04:35:33;;;;;;;4.18;3.20;;;7.90;1.00;;;;;;5046258;28;20403;-77
2023/10/07 04:43:36;;;;;;;3.70;3.10;;;7.60;1.00;;;;;;5033416;28;20783;-78
2023/10/07 04:46:12;;;;;;;4.85;3.40;;;7.60;1.00;;;;;;5017364;28;20413;-77
2023/10/07 04:48:54;;;;;;;4.80;3.60;;;7.50;1.00;;;;;;5020379;28;20470;-77
2023/10/07 04:51:33;;;;;;;4.38;3.58;;;7.60;1.00;;;;;;5033085;28;20395;-77
2023/10/07 04:54:02;;;;;;;4.60;3.43;;;7.60;1.00;;;;;;5031690;28;20457;-77
2023/10/07 04:56:32;;;;;;;4.35;3.42;;;7.50;1.00;;;;;;5011892;28;20452;-77
2023/10/07 04:59:00;;;;;;;4.97;3.37;;;7.80;1.00;;;;;;5021439;28;20483;-77
2023/10/07 05:01:33;;;;;;;5.90;3.60;;;7.60;1.00;;;;;;5031600;28;20391;-77
2023/10/07 05:04:03;;;;;;;6.35;3.10;;;7.70;1.00;;;;;;5030537;28;20918;-77
2023/10/07 05:06:30;;;;;;;5.32;3.47;;;7.60;1.00;;;;;;5031154;28;20415;-77
2023/10/07 05:08:56;;;;;;;3.28;2.80;;;7.30;1.00;;;;;;5031323;28;20391;-77
2023/10/07 05:11:26;;;;;;;5.28;3.28;;;7.40;1.00;;;;;;5027613;28;20401;-77
2023/10/07 05:13:51;;;;;;;5.00;2.80;;;7.80;1.00;;;;;;5022644;28;20424;-77
2023/10/07 05:16:19;;;;;;;5.80;3.55;;;7.30;1.00;;;;;;5019534;28;20434;-77
2023/10/07 05:18:45;;;;;;;4.53;3.40;;;7.50;1.00;;;;;;5024519;28;20399;-77
2023/10/07 05:21:11;;;;;;;4.85;3.40;;;7.60;1.00;;;;;;5029306;28;20394;-77
2023/10/07 05:23:39;;;;;;;4.22;3.00;;;7.30;1.00;;;;;;5024454;28;20399;-77
2023/10/07 05:26:08;;;;;;;4.80;2.97;;;7.30;1.00;;;;;;5029642;28;20493;-77
2023/10/07 05:28:35;;;;;;;4.18;2.85;;;7.60;1.00;;;;;;5025177;28;20514;-78
2023/10/07 05:31:03;;;;;;;5.25;3.25;;;7.70;1.00;;;;;;5016710;28;20380;-78
2023/10/07 05:33:34;;;;;;;4.13;2.70;;;7.50;1.00;;;;;;5012898;28;20442;-78
2023/10/07 05:36:16;;;;;;;2.97;2.30;;;7.60;1.00;;;;;;5012275;28;20396;-77
2023/10/07 05:38:44;;;;;;;4.50;2.77;;;7.10;1.00;;;;;;5027648;28;20407;-77
2023/10/07 05:41:14;;;;;;;4.53;3.30;;;7.60;1.00;;;;;;5032017;28;20894;-78
2023/10/07 05:43:44;;;;;;;4.50;2.80;;;7.70;1.00;;;;;;5032170;28;20391;-77
2023/10/07 05:46:10;;;;;;;4.68;3.00;;;7.50;1.00;;;;;;5032027;28;20439;-78
2023/10/07 05:48:38;;;;;;;6.10;2.80;;;7.60;1.00;;;;;;5030560;28;20402;-77
2023/10/07 05:51:08;;;;;;;5.30;3.40;;;7.50;1.00;;;;;;5011971;28;20389;-77
2023/10/07 05:53:39;;;;;;;3.60;2.70;;;7.60;1.00;;;;;;5015173;28;20882;-77
2023/10/07 05:56:06;;;;;;;5.43;3.17;;;7.90;1.00;;;;;;5031022;28;20517;-77
2023/10/07 05:58:36;;;;;;;3.25;2.40;;;8.10;1.00;;;;;;5031510;28;20405;-77
2023/10/07 06:01:03;;;;;;;3.70;2.50;;;8.30;1.00;;;;;;5031747;28;20393;-77
2023/10/07 06:03:30;;;;;;;4.10;2.90;;;8.20;1.00;;;;;;5030663;28;20393;-77
2023/10/07 06:05:57;;;;;;;4.40;2.60;;;8.10;1.00;;;;;;5031524;28;20777;-77
2023/10/07 06:08:26;;;;;;;3.45;2.30;;;8.30;1.00;;;;;;5029692;28;20406;-77
2023/10/07 06:10:56;;;;;;;4.15;2.40;;;8.30;1.00;;;;;;5031575;28;20887;-77
2023/10/07 06:13:27;;;;;;;3.65;2.70;;;8.60;1.00;;;;;;5031972;28;20829;-77
2023/10/07 06:15:57;;;;;;;3.65;2.45;;;8.80;1.00;;;;;;5030323;28;20395;-77
2023/10/07 06:18:23;;;;;;;4.78;2.70;;;8.80;1.00;;;;;;5031374;28;20433;-77
2023/10/07 06:20:51;;;;;;;4.35;2.53;;;8.70;1.00;;;;;;5030023;28;20463;-77
2023/10/07 06:23:24;;;;;;;3.40;2.40;;;8.80;1.00;;;;;;5029848;28;20395;-77
2023/10/07 06:25:50;;;;;;;5.40;2.53;;;8.70;1.00;;;;;;5034777;28;20464;-77
2023/10/07 06:31:01;;;;;;;3.28;2.40;;;8.90;1.00;;;;;;5027489;28;20388;-77
2023/10/07 06:33:27;;;;;;;7.13;2.80;;;8.70;1.00;;;;;;5017395;28;20381;-78
2023/10/07 06:35:53;;;;;;;4.43;2.67;;;8.90;1.00;;;;;;5015927;28;20403;-77
2023/10/07 06:38:21;;;;;;;3.50;2.50;;;8.80;1.00;;;;;;5020448;28;20395;-78
2023/10/07 06:40:53;;;;;;;4.05;2.72;;;8.70;1.00;;;;;;5034615;28;20891;-77
2023/10/07 06:43:21;;;;;;;3.60;2.50;;;8.90;1.00;;;;;;5035292;28;20395;-77
2023/10/07 06:45:47;;;;;;;4.05;2.72;;;9.00;1.00;;;;;;5028236;28;20916;-78
2023/10/07 06:48:13;;;;;;;4.03;2.58;;;8.60;1.00;;;;;;5035027;28;20403;-78
2023/10/07 06:50:45;;;;;;;4.50;2.95;;;9.00;1.00;;;;;;5035474;28;20466;-79
2023/10/07 06:53:18;;;;;;;2.88;2.30;;;8.80;1.00;;;;;;5034476;28;20386;-77
2023/10/07 06:55:47;;;;;;;3.72;2.28;;;9.00;1.00;;;;;;5033346;28;20420;-78
2023/10/07 06:58:14;;;;;;;4.13;2.90;;;9.00;1.00;;;;;;5025573;28;21054;-77
2023/10/07 07:00:50;;;;;;;5.00;2.70;;;8.90;1.00;;;;;;5026954;28;20486;-77
2023/10/07 07:03:19;;;;;;;3.30;2.47;;;9.00;1.00;;;;;;5021058;28;20802;-78
2023/10/07 07:05:46;;;;;;;5.05;3.00;;;9.00;1.00;;;;;;5016669;28;20431;-77
2023/10/07 07:08:12;;;;;;;5.25;2.40;;;9.00;1.00;;;;;;5028254;28;20391;-77
2023/10/07 07:10:40;;;;;;;4.80;2.67;;;9.50;1.00;;;;;;5034613;28;20398;-78
2023/10/07 07:13:13;;;;;;;4.13;2.70;;;9.40;1.00;;;;;;5034792;28;20387;-78
2023/10/07 07:15:41;;;;;;;4.80;3.10;;;9.60;1.00;;;;;;5035187;28;20739;-78
2023/10/07 07:20:49;;;;;;;4.22;2.58;;;9.50;1.00;;;;;;5036297;28;20486;-78
2023/10/07 07:23:16;;;;;;;4.35;3.00;;;9.80;1.00;;;;;;5035955;28;20730;-78
2023/10/07 07:25:50;;;;;;;5.97;2.80;;;9.80;1.00;;;;;;5035301;28;20433;-77
2023/10/07 07:28:17;;;;;;;3.83;2.30;;;10.00;1.00;;;;;;5035181;28;20823;-78
2023/10/07 07:30:44;;;;;;;3.83;3.08;;;9.90;1.00;;;;;;5034546;28;20419;-78
2023/10/07 07:33:12;;;;;;;3.78;2.70;;;10.00;1.00;;;;;;5035130;28;20391;-78
2023/10/07 07:35:44;;;;;;;5.28;2.85;;;10.10;1.00;;;;;;5027934;28;20774;-78
2023/10/07 07:38:26;;;;;;;4.25;2.70;;;10.40;1.00;;;;;;5031270;28;20486;-78
2023/10/07 07:41:06;;;;;;;4.38;2.60;;;10.50;1.00;;;;;;5033290;28;20385;-78
2023/10/07 07:43:39;;;;;;;4.22;2.80;;;10.60;1.00;;;;;;5024849;28;20414;-78
2023/10/07 07:46:18;;;;;;;3.20;2.90;;;10.60;1.00;;;;;;5030629;28;20411;-78
2023/10/07 07:48:50;;;;;;;4.20;2.70;;;10.80;1.00;;;;;;5023799;28;20396;-78
2023/10/07 07:51:17;;;;;;;5.47;3.10;;;10.90;1.00;;;;;;5021451;28;20392;-77
2023/10/07 07:53:43;;;;;;;5.15;3.40;;;11.00;1.00;;;;;;5032430;28;20424;-78
2023/10/07 07:56:12;;;;;;;4.10;2.60;;;11.10;1.00;;;;;;5023407;28;20395;-77
2023/10/07 07:58:41;;;;;;;5.82;3.50;;;11.50;1.00;;;;;;5026993;28;20958;-77
2023/10/07 08:01:33;;;;;;;5.10;2.80;;;11.40;1.00;;;;;;5029703;28;20979;-77
2023/10/07 08:03:59;;;;;;;5.05;2.55;;;11.40;1.00;;;;;;5022984;28;20549;-76
2023/10/07 08:06:25;;;;;;;5.30;3.30;;;11.70;1.00;;;;;;5025740;28;21034;-76
2023/10/07 08:08:53;;;;;;;4.63;2.70;;;11.60;1.00;;;;;;5029940;28;20397;-77
2023/10/07 08:11:19;;;;;;;4.40;2.75;;;12.00;1.00;;;;;;5023554;28;21836;-78
2023/10/07 08:13:45;;;;;;;3.92;2.70;;;12.60;1.00;;;;;;5018420;28;20418;-77
2023/10/07 08:16:17;;;;;;;5.40;2.83;;;12.50;1.00;;;;;;5022660;28;20801;-76
2023/10/07 08:18:44;;;;;;;3.88;2.40;;;12.40;1.00;;;;;;5027687;28;20824;-77
2023/10/07 08:21:13;;;;;;;3.20;2.38;;;12.40;1.00;;;;;;5028725;28;20494;-77
2023/10/07 08:23:40;;;;;;;4.68;2.60;;;12.50;1.00;;;;;;5028172;28;20454;-77
2023/10/07 08:26:13;;;;;;;4.22;2.53;;;12.70;1.00;;;;;;5024647;28;20413;-77
2023/10/07 08:28:59;;;;;;;4.25;3.10;;;12.80;1.00;;;;;;5023392;28;20385;-77
2023/10/07 08:31:38;;;;;;;5.18;3.60;;;12.20;1.00;;;;;;5022191;28;20383;-77
2023/10/07 08:36:36;;;;;;;3.95;2.80;;;13.00;1.00;;;;;;5023226;28;20778;-77
2023/10/07 08:39:06;;;;;;;3.83;2.72;;;13.00;1.00;;;;;;5021022;28;20462;-77
2023/10/07 08:41:32;;;;;;;4.93;2.80;;;13.40;1.00;;;;;;5021353;28;20388;-77
2023/10/07 08:44:18;;;;;;;4.28;2.55;;;13.50;1.00;;;;;;5022447;28;20405;-77
2023/10/07 08:47:02;;;;;;;4.18;2.70;;;13.60;1.00;;;;;;5019480;28;20459;-77
2023/10/07 08:49:32;;;;;;;5.18;3.00;;;13.50;1.00;;;;;;5017414;28;20719;-77
2023/10/07 08:51:59;;;;;;;3.70;2.30;;;13.50;1.00;;;;;;5019986;28;20466;-77
2023/10/07 08:54:31;;;;;;;3.65;2.28;;;13.80;1.00;;;;;;5021263;28;20794;-77
2023/10/07 08:57:02;;;;;;;4.43;2.70;;;13.80;1.00;;;;;;5021701;28;20392;-77
2023/10/07 08:59:30;;;;;;;3.70;2.97;;;14.40;1.00;;;;;;5022906;28;20387;-77
2023/10/07 09:01:57;;;;;;;3.38;2.60;;;14.70;1.00;;;;;;5027251;28;20688;-77
2023/10/07 09:04:31;;;;;;;3.13;2.50;;;14.60;1.00;;;;;;5013802;28;20396;-77
2023/10/07 09:06:58;;;;;;;4.30;2.80;;;15.10;1.00;;;;;;5012393;28;20968;-77
2023/10/07 09:09:35;;;;;;;4.47;2.90;;;15.10;1.00;;;;;;5012201;28;20389;-76
2023/10/07 09:12:08;;;;;;;4.20;3.03;;;15.10;1.00;;;;;;5023224;28;20540;-77
2023/10/07 09:14:34;;;;;;;4.35;2.50;;;15.20;1.00;;;;;;5027617;28;20424;-77
2023/10/07 09:17:04;;;;;;;4.53;2.58;;;15.30;1.00;;;;;;5010966;28;20397;-77
2023/10/07 09:19:30;;;;;;;4.15;2.50;;;15.50;1.00;;;;;;5014093;28;20388;-77
2023/10/07 09:21:57;;;;;;;3.95;2.60;;;15.30;1.00;;;;;;5010563;28;20777;-77
2023/10/07 09:24:26;;;;;;;3.92;2.72;;;15.80;1.00;;;;;;5012814;28;20381;-76
2023/10/07 09:26:59;;;;;;;4.40;2.70;;;15.90;1.00;;;;;;5030007;28;20876;-77
2023/10/07 09:29:25;;;;;;;4.18;2.78;;;15.90;1.00;;;;;;5031730;28;20410;-77
2023/10/07 09:31:56;;;;;;;4.05;2.50;;;15.90;1.00;;;;;;5031191;28;20467;-76
2023/10/07 09:34:41;;;;;;;4.35;2.88;;;16.00;1.00;;;;;;5030950;28;20899;-77
2023/10/07 09:37:13;;;;;;;5.00;2.90;;;15.90;1.00;;;;;;5015644;28;20406;-76
2023/10/07 09:39:44;;;;;;;4.10;2.55;;;16.10;1.00;;;;;;5021172;28;20440;-77
2023/10/07 09:42:26;;;;;;;3.50;2.90;;;16.30;1.00;;;;;;5030699;28;20383;-79
2023/10/07 09:44:56;;;;;;;6.45;3.97;;;16.40;1.00;;;;;;5030322;28;20410;-77
2023/10/07 09:47:22;;;;;;;5.00;3.47;;;16.50;1.00;;;;;;5024863;28;20408;-77
2023/10/07 09:49:50;;;;;;;4.78;3.40;;;16.40;1.00;;;;;;5020320;28;20398;-77
2023/10/07 09:52:19;;;;;;;5.53;3.10;;;16.30;1.00;;;;;;5031055;28;20897;-77
2023/10/07 09:55:18;;;;;;;6.10;3.92;;;16.00;1.00;;;;;;5030795;28;20394;-77
2023/10/07 09:58:00;;;;;;;3.97;3.38;;;16.30;1.00;;;;;;5031302;28;20375;-77
2023/10/07 10:00:45;;;;;;;5.00;3.53;;;16.40;1.00;;;;;;5015340;28;20392;-77
2023/10/07 10:03:39;;;;;;;6.78;3.50;;;16.50;1.00;;;;;;5010985;28;20387;-78
2023/10/07 10:06:25;;;;;;;6.00;3.55;;;16.70;1.00;;;;;;5010706;28;20412;-77
2023/10/07 10:09:08;;;;;;;4.55;3.20;;;16.80;1.00;;;;;;5031527;28;20471;-77
2023/10/07 10:16:54;;;;;;;5.50;3.50;;;17.10;1.00;;;;;;5031690;28;20397;-78
2023/10/07 10:19:47;;;;;;;5.35;3.45;;;19.40;1.00;;;;;;5031727;28;20419;-78
2023/10/07 10:22:22;;;;;;;4.60;3.15;;;17.10;1.00;;;;;;5029992;28;20399;-78
2023/10/07 10:24:49;;;;;;;6.75;3.05;;;17.10;1.00;;;;;;5031467;28;20434;-79
2023/10/07 10:27:17;;;;;;;5.60;4.00;;;17.00;1.00;;;;;;5031537;28;20466;-80
2023/10/07 10:29:52;;;;;;;5.45;3.95;;;16.90;1.00;;;;;;5030862;28;20418;-78
2023/10/07 10:32:30;;;;;;;4.50;3.20;;;17.00;1.00;;;;;;5031045;28;20403;-78
2023/10/07 10:35:00;;;;;;;4.60;3.65;;;16.90;1.00;;;;;;5030849;28;20422;-78
2023/10/07 10:37:28;;;;;;;6.90;3.20;;;17.10;1.00;;;;;;5030361;28;20391;-78
2023/10/07 10:39:53;;;;;;;5.72;3.50;;;17.20;1.00;;;;;;5031574;28;20948;-78
2023/10/07 10:42:21;;;;;;;5.73;3.90;;;17.40;1.00;;;;;;5030867;28;20391;-78
2023/10/07 10:44:48;;;;;;;4.38;3.00;;;17.30;1.00;;;;;;5029950;28;20418;-78
2023/10/07 10:47:18;;;;;;;7.00;3.25;;;17.60;1.00;;;;;;5029319;28;20976;-78
2023/10/07 10:49:44;;;;;;;5.13;3.30;;;17.90;1.00;;;;;;5031541;28;20395;-78
2023/10/07 10:52:11;;;;;;;4.95;3.10;;;18.20;1.00;;;;;;5031202;28;20387;-78
2023/10/07 10:54:39;;;;;;;5.95;3.50;;;18.60;1.00;;;;;;5018018;28;20389;-78
2023/10/07 10:57:07;;;;;;;6.60;3.60;;;18.80;1.00;;;;;;5025492;28;20465;-78
2023/10/07 10:59:42;;;;;;;5.85;3.47;;;19.40;1.00;;;;;;5023305;28;20472;-77
2023/10/07 11:02:12;;;;;;;6.47;3.40;;;19.10;1.00;;;;;;5024776;28;20392;-77
2023/10/07 11:04:38;;;;;;;5.57;2.75;;;20.20;1.00;;;;;;5031764;28;20750;-77
2023/10/07 11:07:07;;;;;;;5.05;3.35;;;19.90;1.00;;;;;;5041777;28;20446;-77
2023/10/07 11:09:38;;;;;;;4.83;3.57;;;20.20;1.00;;;;;;5040503;28;20522;-77
2023/10/07 11:12:09;;;;;;;5.03;3.50;;;20.20;1.00;;;;;;5043151;28;20419;-77
2023/10/07 11:14:40;;;;;;;5.20;3.50;;;20.80;1.00;;;;;;5024067;28;20402;-78
2023/10/07 11:17:09;;;;;;;6.72;3.53;;;21.00;1.00;;;;;;5024772;28;20422;-78
2023/10/07 11:19:40;;;;;;;8.00;3.20;;;20.40;1.00;;;;;;5014299;28;20488;-78
2023/10/07 11:22:07;;;;;;;7.25;3.72;;;21.00;1.00;;;;;;5013935;28;21066;-78
2023/10/07 11:24:35;;;;;;;4.38;3.22;;;21.80;1.00;;;;;;5013865;28;20385;-79
2023/10/07 11:27:02;;;;;;;7.55;3.70;;;22.00;1.00;;;;;;5024148;28;20445;-78
2023/10/07 11:29:32;;;;;;;7.07;4.10;;;22.70;1.00;;;;;;5035163;28;20401;-78
2023/10/07 11:31:59;;;;;;;4.97;3.50;;;22.90;1.00;;;;;;5031799;28;20412;-78
2023/10/07 11:34:38;;;;;;;5.57;3.85;;;22.40;1.00;;;;;;5030290;28;20433;-78
2023/10/07 11:37:13;;;;;;;4.88;3.60;;;22.30;1.00;;;;;;5033592;28;20398;-79
2023/10/07 11:39:44;;;;;;;4.95;3.55;;;22.30;1.00;;;;;;5034728;28;20917;-78
2023/10/07 11:42:21;;;;;;;4.75;3.13;;;23.00;1.00;;;;;;5034825;28;20436;-78
2023/10/07 11:44:54;;;;;;;5.30;3.60;;;23.20;1.00;;;;;;5027899;28;20410;-78
2023/10/07 11:47:21;;;;;;;5.90;4.20;;;23.80;1.00;;;;;;5032425;28;20421;-77
2023/10/07 11:49:47;;;;;;;5.18;3.40;;;24.00;1.00;;;;;;5032227;28;20494;-77
2023/10/07 11:52:19;;;;;;;4.93;3.90;;;24.00;1.00;;;;;;5032794;28;20922;-77
2023/10/07 11:54:46;;;;;;;6.15;4.00;;;22.80;1.00;;;;;;5033156;28;20438;-77
2023/10/07 11:57:13;;;;;;;6.20;4.40;;;23.70;1.00;;;;;;5034187;28;20395;-77
2023/10/07 11:59:41;;;;;;;4.87;3.50;;;23.90;1.00;;;;;;5032243;28;20386;-77
2023/10/07 12:02:11;;;;;;;5.88;3.83;;;23.80;1.00;;;;;;5032548;28;20405;-77
2023/10/07 12:04:46;;;;;;;6.07;4.20;;;23.40;1.00;;;;;;5032721;28;20477;-77
2023/10/07 12:07:14;;;;;;;4.47;3.60;;;22.80;1.00;;;;;;5035082;28;20482;-77
2023/10/07 12:09:40;;;;;;;5.40;3.70;;;23.20;1.00;;;;;;5035417;28;20395;-77
2023/10/07 12:12:09;;;;;;;5.35;3.75;;;22.60;1.00;;;;;;5032314;28;20410;-77
2023/10/07 12:14:36;;;;;;;5.00;3.70;;;22.70;1.00;;;;;;5031744;28;20387;-78
2023/10/07 12:17:03;;;;;;;4.00;3.25;;;22.70;1.00;;;;;;5031615;28;20391;-77
2023/10/07 12:19:30;;;;;;;5.53;3.58;;;22.40;1.00;;;;;;5030728;28;20399;-78
2023/10/07 12:21:57;;;;;;;4.20;3.28;;;23.40;1.00;;;;;;5021439;28;20415;-77
2023/10/07 12:24:22;;;;;;;6.45;3.50;;;23.50;1.00;;;;;;5024064;28;20763;-77
2023/10/07 12:26:51;;;;;;;4.43;3.73;;;23.60;1.00;;;;;;5019270;28;20415;-77
2023/10/07 12:29:18;;;;;;;6.22;3.40;;;23.60;1.00;;;;;;5028747;28;20469;-77
2023/10/07 12:31:45;;;;;;;4.73;3.20;;;23.60;1.00;;;;;;5024425;28;20375;-77
2023/10/07 12:34:12;;;;;;;5.50;3.40;;;23.30;1.00;;;;;;5031663;28;20486;-77
2023/10/07 12:36:38;;;;;;;4.70;3.25;;;22.70;1.00;;;;;;5024738;28;20413;-78
2023/10/07 12:39:10;;;;;;;6.78;3.90;;;23.00;1.00;;;;;;5020318;28;20440;-78
2023/10/07 12:41:39;;;;;;;6.18;3.08;;;23.50;1.00;;;;;;5024050;28;20477;-78
2023/10/07 12:44:09;;;;;;;4.80;2.80;;;23.40;1.00;;;;;;5026770;28;20489;-78
2023/10/07 12:46:38;;;;;;;6.25;3.47;;;23.60;1.00;;;;;;5027638;28;20438;-77
2023/10/07 12:49:09;;;;;;;4.05;3.05;;;23.50;1.00;;;;;;5025965;28;20407;-78
2023/10/07 12:51:40;;;;;;;5.47;3.10;;;23.50;1.00;;;;;;5026419;28;20428;-77
2023/10/07 12:54:08;;;;;;;6.03;3.20;;;23.60;1.00;;;;;;5031071;28;20418;-78
2023/10/07 12:56:45;;;;;;;5.18;3.15;;;23.80;1.00;;;;;;5029415;28;20405;-77
2023/10/07 12:59:23;;;;;;;5.10;3.20;;;24.10;1.00;;;;;;5025089;28;20398;-78
2023/10/07 13:01:51;;;;;;;6.80;3.40;;;24.70;1.00;;;;;;5026948;28;20407;-78
2023/10/07 13:04:20;;;;;;;3.70;2.90;;;24.10;1.00;;;;;;5016667;28;20407;-78
2023/10/07 13:06:48;;;;;;;4.70;3.20;;;24.50;1.00;;;;;;5025116;28;20416;-78
2023/10/07 13:09:16;;;;;;;4.78;3.58;;;23.80;1.00;;;;;;5026015;28;20394;-78
2023/10/07 13:11:49;;;;;;;4.90;2.97;;;23.80;1.00;;;;;;5024690;28;20403;-78
2023/10/07 13:14:14;;;;;;;4.97;3.50;;;23.30;1.00;;;;;;5025117;28;20379;-78
2023/10/07 13:16:45;;;;;;;5.13;3.43;;;25.10;1.00;;;;;;5025366;28;20435;-78
2023/10/07 13:19:11;;;;;;;5.20;3.17;;;24.10;1.00;;;;;;5028337;28;20407;-78
2023/10/07 13:21:37;;;;;;;4.13;3.10;;;24.00;1.00;;;;;;5028197;28;20398;-78
2023/10/07 13:24:07;;;;;;;4.30;3.10;;;24.20;1.00;;;;;;5025737;28;20389;-78
2023/10/07 13:26:34;;;;;;;4.95;2.78;;;24.60;1.00;;;;;;5020923;28;20528;-76
2023/10/07 13:28:59;;;;;;;4.25;3.03;;;25.10;1.00;;;;;;5023451;28;20391;-77
2023/10/07 13:31:25;;;;;;;5.65;2.65;;;24.60;1.00;;;;;;5016587;28;20393;-77
2023/10/07 13:33:51;;;;;;;4.80;3.23;;;24.00;1.00;;;;;;5021429;28;20386;-77
2023/10/07 13:36:17;;;;;;;5.10;3.53;;;24.00;1.00;;;;;;5009842;28;20407;-77
2023/10/07 13:38:44;;;;;;;6.53;3.13;;;24.10;1.00;;;;;;5009076;28;20397;-77
2023/10/07 13:41:14;;;;;;;4.80;2.73;;;24.50;1.00;;;;;;5020003;28;20402;-77
2023/10/07 13:43:40;;;;;;;4.47;3.30;;;24.60;1.00;;;;;;5030811;28;20469;-77
2023/10/07 13:46:12;;;;;;;3.70;2.70;;;25.20;1.00;;;;;;5014402;28;20400;-77
2023/10/07 13:48:38;;;;;;;5.00;3.10;;;25.30;1.00;;;;;;5016389;28;20842;-77